sensor_id;sensor_type;location;lat;lon;timestamp;P1;durP1;ratioP1;P2;durP2;ratioP2
8397;SDS011;4236;54.504;9.588;2023-05-14T00:00:06;12.43;;;11.33;;
8397;SDS011;4236;54.504;9.588;2023-05-14T00:02:35;12.73;;;11.43;;
8397;SDS011;4236;54.504;9.588;2023-05-14T00:05:03;15.20;;;11.50;;
8397;SDS011;4236;54.504;9.588;2023-05-14T00:07:32;13.43;;;12.13;;
8397;SDS011;4236;54.504;9.588;2023-05-14T00:09:59;12.63;;;11.23;;
8397;SDS011;4236;54.504;9.588;2023-05-14T00:12:27;14.63;;;12.27;;
8397;SDS011;4236;54.504;9.588;2023-05-14T00:14:55;12.10;;;11.10;;
8397;SDS011;4236;54.504;9.588;2023-05-14T00:17:22;14.63;;;13.23;;
8397;SDS011;4236;54.504;9.588;2023-05-14T00:19:52;12.43;;;11.33;;
8397;SDS011;4236;54.504;9.588;2023-05-14T00:22:19;14.43;;;13.00;;
8397;SDS011;4236;54.504;9.588;2023-05-14T00:24:47;14.50;;;13.30;;
8397;SDS011;4236;54.504;9.588;2023-05-14T00:27:14;13.13;;;11.90;;
8397;SDS011;4236;54.504;9.588;2023-05-14T00:29:42;14.13;;;12.60;;
8397;SDS011;4236;54.504;9.588;2023-05-14T00:32:10;13.30;;;12.20;;
8397;SDS011;4236;54.504;9.588;2023-05-14T00:34:38;14.27;;;12.20;;
8397;SDS011;4236;54.504;9.588;2023-05-14T00:37:07;13.07;;;11.97;;
8397;SDS011;4236;54.504;9.588;2023-05-14T00:39:35;13.17;;;12.00;;
8397;SDS011;4236;54.504;9.588;2023-05-14T00:42:02;14.80;;;13.40;;
8397;SDS011;4236;54.504;9.588;2023-05-14T00:44:31;13.60;;;12.40;;
8397;SDS011;4236;54.504;9.588;2023-05-14T00:46:59;14.60;;;13.30;;
8397;SDS011;4236;54.504;9.588;2023-05-14T00:49:27;14.53;;;13.20;;
8397;SDS011;4236;54.504;9.588;2023-05-14T00:51:55;14.13;;;12.90;;
8397;SDS011;4236;54.504;9.588;2023-05-14T00:54:28;13.50;;;12.30;;
8397;SDS011;4236;54.504;9.588;2023-05-14T00:56:56;13.00;;;11.97;;
8397;SDS011;4236;54.504;9.588;2023-05-14T00:59:26;13.50;;;12.30;;
8397;SDS011;4236;54.504;9.588;2023-05-14T01:01:53;16.27;;;14.87;;
8397;SDS011;4236;54.504;9.588;2023-05-14T01:04:21;13.40;;;12.30;;
8397;SDS011;4236;54.504;9.588;2023-05-14T01:06:50;17.20;;;14.57;;
8397;SDS011;4236;54.504;9.588;2023-05-14T01:09:34;14.83;;;13.53;;
8397;SDS011;4236;54.504;9.588;2023-05-14T01:12:07;15.47;;;14.03;;
8397;SDS011;4236;54.504;9.588;2023-05-14T01:14:44;15.40;;;13.77;;
8397;SDS011;4236;54.504;9.588;2023-05-14T01:17:20;16.57;;;14.67;;
8397;SDS011;4236;54.504;9.588;2023-05-14T01:19:48;17.13;;;15.77;;
8397;SDS011;4236;54.504;9.588;2023-05-14T01:22:19;14.83;;;13.57;;
8397;SDS011;4236;54.504;9.588;2023-05-14T01:24:46;16.07;;;14.50;;
8397;SDS011;4236;54.504;9.588;2023-05-14T01:27:15;15.73;;;13.60;;
8397;SDS011;4236;54.504;9.588;2023-05-14T01:29:48;17.47;;;15.60;;
8397;SDS011;4236;54.504;9.588;2023-05-14T01:32:20;15.27;;;14.00;;
8397;SDS011;4236;54.504;9.588;2023-05-14T01:34:49;15.37;;;14.03;;
8397;SDS011;4236;54.504;9.588;2023-05-14T01:37:20;18.70;;;15.70;;
8397;SDS011;4236;54.504;9.588;2023-05-14T01:39:48;18.80;;;16.90;;
8397;SDS011;4236;54.504;9.588;2023-05-14T01:42:17;16.93;;;15.40;;
8397;SDS011;4236;54.504;9.588;2023-05-14T01:44:45;18.40;;;16.70;;
8397;SDS011;4236;54.504;9.588;2023-05-14T01:47:13;17.00;;;15.30;;
8397;SDS011;4236;54.504;9.588;2023-05-14T01:49:41;17.30;;;15.60;;
8397;SDS011;4236;54.504;9.588;2023-05-14T01:52:08;19.80;;;17.80;;
8397;SDS011;4236;54.504;9.588;2023-05-14T01:54:38;17.80;;;16.07;;
8397;SDS011;4236;54.504;9.588;2023-05-14T01:57:06;20.23;;;17.63;;
8397;SDS011;4236;54.504;9.588;2023-05-14T01:59:33;20.93;;;18.93;;
8397;SDS011;4236;54.504;9.588;2023-05-14T02:02:01;19.50;;;17.50;;
8397;SDS011;4236;54.504;9.588;2023-05-14T02:04:29;19.47;;;17.57;;
8397;SDS011;4236;54.504;9.588;2023-05-14T02:06:56;21.17;;;18.03;;
8397;SDS011;4236;54.504;9.588;2023-05-14T02:09:24;19.57;;;17.60;;
8397;SDS011;4236;54.504;9.588;2023-05-14T02:11:53;20.47;;;18.47;;
8397;SDS011;4236;54.504;9.588;2023-05-14T02:14:20;19.37;;;17.67;;
8397;SDS011;4236;54.504;9.588;2023-05-14T02:16:48;20.60;;;18.67;;
8397;SDS011;4236;54.504;9.588;2023-05-14T02:19:17;20.53;;;18.73;;
8397;SDS011;4236;54.504;9.588;2023-05-14T02:21:44;19.50;;;17.63;;
8397;SDS011;4236;54.504;9.588;2023-05-14T02:24:12;19.90;;;18.07;;
8397;SDS011;4236;54.504;9.588;2023-05-14T02:26:40;22.20;;;20.40;;
8397;SDS011;4236;54.504;9.588;2023-05-14T02:29:09;21.03;;;18.20;;
8397;SDS011;4236;54.504;9.588;2023-05-14T02:31:37;22.27;;;20.03;;
8397;SDS011;4236;54.504;9.588;2023-05-14T02:34:05;21.33;;;18.93;;
8397;SDS011;4236;54.504;9.588;2023-05-14T02:36:33;19.77;;;17.87;;
8397;SDS011;4236;54.504;9.588;2023-05-14T02:39:01;20.80;;;18.97;;
8397;SDS011;4236;54.504;9.588;2023-05-14T02:41:29;21.63;;;19.33;;
8397;SDS011;4236;54.504;9.588;2023-05-14T02:43:57;23.00;;;20.67;;
8397;SDS011;4236;54.504;9.588;2023-05-14T02:46:27;21.20;;;19.40;;
8397;SDS011;4236;54.504;9.588;2023-05-14T02:48:55;22.63;;;20.40;;
8397;SDS011;4236;54.504;9.588;2023-05-14T02:51:23;24.83;;;21.33;;
8397;SDS011;4236;54.504;9.588;2023-05-14T02:53:52;21.93;;;19.93;;
8397;SDS011;4236;54.504;9.588;2023-05-14T02:56:20;22.80;;;20.60;;
8397;SDS011;4236;54.504;9.588;2023-05-14T02:58:48;24.10;;;21.80;;
8397;SDS011;4236;54.504;9.588;2023-05-14T03:01:16;24.53;;;22.10;;
8397;SDS011;4236;54.504;9.588;2023-05-14T03:03:47;23.50;;;21.50;;
8397;SDS011;4236;54.504;9.588;2023-05-14T03:06:15;24.37;;;21.80;;
8397;SDS011;4236;54.504;9.588;2023-05-14T03:08:43;24.67;;;22.50;;
8397;SDS011;4236;54.504;9.588;2023-05-14T03:11:11;23.63;;;21.50;;
8397;SDS011;4236;54.504;9.588;2023-05-14T03:13:38;25.80;;;23.30;;
8397;SDS011;4236;54.504;9.588;2023-05-14T03:16:07;24.47;;;22.03;;
8397;SDS011;4236;54.504;9.588;2023-05-14T03:18:35;23.67;;;21.37;;
8397;SDS011;4236;54.504;9.588;2023-05-14T03:21:04;23.17;;;21.10;;
8397;SDS011;4236;54.504;9.588;2023-05-14T03:23:34;24.07;;;21.90;;
8397;SDS011;4236;54.504;9.588;2023-05-14T03:26:01;21.20;;;19.30;;
8397;SDS011;4236;54.504;9.588;2023-05-14T03:28:30;24.07;;;21.63;;
8397;SDS011;4236;54.504;9.588;2023-05-14T03:30:58;25.23;;;21.93;;
8397;SDS011;4236;54.504;9.588;2023-05-14T03:33:26;24.70;;;22.60;;
8397;SDS011;4236;54.504;9.588;2023-05-14T03:35:54;22.60;;;20.30;;
8397;SDS011;4236;54.504;9.588;2023-05-14T03:38:24;24.40;;;21.40;;
8397;SDS011;4236;54.504;9.588;2023-05-14T03:40:52;23.97;;;21.43;;
8397;SDS011;4236;54.504;9.588;2023-05-14T03:43:20;24.63;;;22.10;;
8397;SDS011;4236;54.504;9.588;2023-05-14T03:45:48;23.00;;;20.90;;
8397;SDS011;4236;54.504;9.588;2023-05-14T03:48:19;22.60;;;20.43;;
8397;SDS011;4236;54.504;9.588;2023-05-14T03:50:48;24.73;;;22.23;;
8397;SDS011;4236;54.504;9.588;2023-05-14T03:53:16;27.77;;;21.70;;
8397;SDS011;4236;54.504;9.588;2023-05-14T03:55:46;23.87;;;21.67;;
8397;SDS011;4236;54.504;9.588;2023-05-14T03:58:14;25.77;;;22.80;;
8397;SDS011;4236;54.504;9.588;2023-05-14T04:00:42;26.00;;;23.40;;
8397;SDS011;4236;54.504;9.588;2023-05-14T04:03:12;25.20;;;21.60;;
8397;SDS011;4236;54.504;9.588;2023-05-14T04:05:40;32.57;;;21.40;;
8397;SDS011;4236;54.504;9.588;2023-05-14T04:08:08;25.57;;;23.13;;
8397;SDS011;4236;54.504;9.588;2023-05-14T04:10:36;25.23;;;22.77;;
8397;SDS011;4236;54.504;9.588;2023-05-14T04:13:06;25.80;;;23.43;;
8397;SDS011;4236;54.504;9.588;2023-05-14T04:15:34;23.47;;;21.27;;
8397;SDS011;4236;54.504;9.588;2023-05-14T04:18:04;27.20;;;23.20;;
8397;SDS011;4236;54.504;9.588;2023-05-14T04:20:33;27.03;;;24.43;;
8397;SDS011;4236;54.504;9.588;2023-05-14T04:23:01;27.87;;;24.97;;
8397;SDS011;4236;54.504;9.588;2023-05-14T04:25:29;28.23;;;25.67;;
8397;SDS011;4236;54.504;9.588;2023-05-14T04:27:57;26.50;;;24.00;;
8397;SDS011;4236;54.504;9.588;2023-05-14T04:30:28;25.30;;;22.93;;
8397;SDS011;4236;54.504;9.588;2023-05-14T04:32:56;24.13;;;21.63;;
8397;SDS011;4236;54.504;9.588;2023-05-14T04:35:24;27.27;;;24.83;;
8397;SDS011;4236;54.504;9.588;2023-05-14T04:37:52;25.30;;;22.80;;
8397;SDS011;4236;54.504;9.588;2023-05-14T04:40:20;24.53;;;22.10;;
8397;SDS011;4236;54.504;9.588;2023-05-14T04:42:49;23.83;;;21.63;;
8397;SDS011;4236;54.504;9.588;2023-05-14T04:45:18;23.50;;;21.50;;
8397;SDS011;4236;54.504;9.588;2023-05-14T04:47:48;22.57;;;20.60;;
8397;SDS011;4236;54.504;9.588;2023-05-14T04:50:16;23.53;;;21.20;;
8397;SDS011;4236;54.504;9.588;2023-05-14T04:52:44;23.23;;;21.43;;
8397;SDS011;4236;54.504;9.588;2023-05-14T04:55:14;22.40;;;20.50;;
8397;SDS011;4236;54.504;9.588;2023-05-14T04:57:42;22.30;;;20.50;;
8397;SDS011;4236;54.504;9.588;2023-05-14T05:00:11;19.80;;;18.20;;
8397;SDS011;4236;54.504;9.588;2023-05-14T05:02:40;19.20;;;17.67;;
8397;SDS011;4236;54.504;9.588;2023-05-14T05:05:10;21.10;;;19.00;;
8397;SDS011;4236;54.504;9.588;2023-05-14T05:07:37;19.40;;;17.53;;
8397;SDS011;4236;54.504;9.588;2023-05-14T05:10:06;22.97;;;20.93;;
8397;SDS011;4236;54.504;9.588;2023-05-14T05:12:35;23.07;;;21.03;;
8397;SDS011;4236;54.504;9.588;2023-05-14T05:15:04;23.37;;;21.13;;
8397;SDS011;4236;54.504;9.588;2023-05-14T05:17:32;23.37;;;21.13;;
8397;SDS011;4236;54.504;9.588;2023-05-14T05:20:01;22.30;;;20.27;;
8397;SDS011;4236;54.504;9.588;2023-05-14T05:22:31;22.77;;;20.87;;
8397;SDS011;4236;54.504;9.588;2023-05-14T05:24:59;20.07;;;18.37;;
8397;SDS011;4236;54.504;9.588;2023-05-14T05:27:31;21.17;;;19.47;;
8397;SDS011;4236;54.504;9.588;2023-05-14T05:30:00;18.20;;;16.90;;
8397;SDS011;4236;54.504;9.588;2023-05-14T05:32:31;16.53;;;15.03;;
8397;SDS011;4236;54.504;9.588;2023-05-14T05:34:59;16.07;;;14.87;;
8397;SDS011;4236;54.504;9.588;2023-05-14T05:37:29;16.97;;;15.40;;
8397;SDS011;4236;54.504;9.588;2023-05-14T05:39:58;16.20;;;14.70;;
8397;SDS011;4236;54.504;9.588;2023-05-14T05:42:26;15.80;;;14.20;;
8397;SDS011;4236;54.504;9.588;2023-05-14T05:44:54;15.90;;;14.53;;
8397;SDS011;4236;54.504;9.588;2023-05-14T05:47:22;14.40;;;13.37;;
8397;SDS011;4236;54.504;9.588;2023-05-14T05:49:51;15.30;;;14.00;;
8397;SDS011;4236;54.504;9.588;2023-05-14T05:52:19;16.40;;;14.70;;
8397;SDS011;4236;54.504;9.588;2023-05-14T05:54:47;16.40;;;15.03;;
8397;SDS011;4236;54.504;9.588;2023-05-14T05:57:17;14.20;;;13.20;;
8397;SDS011;4236;54.504;9.588;2023-05-14T05:59:45;14.23;;;12.97;;
8397;SDS011;4236;54.504;9.588;2023-05-14T06:02:13;14.40;;;13.13;;
8397;SDS011;4236;54.504;9.588;2023-05-14T06:04:41;14.73;;;13.53;;
8397;SDS011;4236;54.504;9.588;2023-05-14T06:07:09;13.67;;;12.60;;
8397;SDS011;4236;54.504;9.588;2023-05-14T06:09:38;14.53;;;13.10;;
8397;SDS011;4236;54.504;9.588;2023-05-14T06:12:06;15.20;;;13.80;;
8397;SDS011;4236;54.504;9.588;2023-05-14T06:14:38;15.30;;;13.90;;
8397;SDS011;4236;54.504;9.588;2023-05-14T06:17:06;15.03;;;13.73;;
8397;SDS011;4236;54.504;9.588;2023-05-14T06:19:34;13.93;;;12.73;;
8397;SDS011;4236;54.504;9.588;2023-05-14T06:22:03;14.50;;;13.47;;
8397;SDS011;4236;54.504;9.588;2023-05-14T06:24:31;13.60;;;12.60;;
8397;SDS011;4236;54.504;9.588;2023-05-14T06:26:59;14.53;;;13.33;;
8397;SDS011;4236;54.504;9.588;2023-05-14T06:29:27;14.77;;;13.57;;
8397;SDS011;4236;54.504;9.588;2023-05-14T06:31:59;13.50;;;12.20;;
8397;SDS011;4236;54.504;9.588;2023-05-14T06:34:29;13.67;;;12.53;;
8397;SDS011;4236;54.504;9.588;2023-05-14T06:36:57;13.60;;;12.60;;
8397;SDS011;4236;54.504;9.588;2023-05-14T06:39:29;16.00;;;12.07;;
8397;SDS011;4236;54.504;9.588;2023-05-14T06:41:57;15.07;;;13.77;;
8397;SDS011;4236;54.504;9.588;2023-05-14T06:44:25;14.43;;;13.03;;
8397;SDS011;4236;54.504;9.588;2023-05-14T06:46:54;13.60;;;12.40;;
8397;SDS011;4236;54.504;9.588;2023-05-14T06:49:24;15.50;;;14.00;;
8397;SDS011;4236;54.504;9.588;2023-05-14T06:51:52;13.10;;;11.90;;
8397;SDS011;4236;54.504;9.588;2023-05-14T06:54:20;13.50;;;12.10;;
8397;SDS011;4236;54.504;9.588;2023-05-14T06:56:48;13.10;;;12.20;;
8397;SDS011;4236;54.504;9.588;2023-05-14T06:59:16;13.37;;;12.07;;
8397;SDS011;4236;54.504;9.588;2023-05-14T07:01:45;13.40;;;12.30;;
8397;SDS011;4236;54.504;9.588;2023-05-14T07:04:13;12.83;;;11.60;;
8397;SDS011;4236;54.504;9.588;2023-05-14T07:06:43;12.30;;;11.20;;
8397;SDS011;4236;54.504;9.588;2023-05-14T07:09:11;12.97;;;11.90;;
8397;SDS011;4236;54.504;9.588;2023-05-14T07:11:39;12.80;;;11.60;;
8397;SDS011;4236;54.504;9.588;2023-05-14T07:14:07;13.27;;;12.17;;
8397;SDS011;4236;54.504;9.588;2023-05-14T07:16:37;12.70;;;11.70;;
8397;SDS011;4236;54.504;9.588;2023-05-14T07:19:05;12.97;;;11.87;;
8397;SDS011;4236;54.504;9.588;2023-05-14T07:21:33;11.17;;;10.37;;
8397;SDS011;4236;54.504;9.588;2023-05-14T07:24:03;11.13;;;10.33;;
8397;SDS011;4236;54.504;9.588;2023-05-14T07:26:32;11.53;;;10.63;;
8397;SDS011;4236;54.504;9.588;2023-05-14T07:29:00;13.77;;;12.23;;
8397;SDS011;4236;54.504;9.588;2023-05-14T07:31:28;13.63;;;11.40;;
8397;SDS011;4236;54.504;9.588;2023-05-14T07:33:56;13.20;;;12.07;;
8397;SDS011;4236;54.504;9.588;2023-05-14T07:36:24;11.67;;;10.87;;
8397;SDS011;4236;54.504;9.588;2023-05-14T07:38:53;13.00;;;11.87;;
8397;SDS011;4236;54.504;9.588;2023-05-14T07:41:31;10.63;;;9.93;;
8397;SDS011;4236;54.504;9.588;2023-05-14T07:44:01;11.47;;;10.57;;
8397;SDS011;4236;54.504;9.588;2023-05-14T07:46:35;11.17;;;10.20;;
8397;SDS011;4236;54.504;9.588;2023-05-14T07:49:03;12.43;;;11.40;;
8397;SDS011;4236;54.504;9.588;2023-05-14T07:51:31;11.07;;;10.37;;
8397;SDS011;4236;54.504;9.588;2023-05-14T07:54:00;11.57;;;10.67;;
8397;SDS011;4236;54.504;9.588;2023-05-14T07:56:32;12.33;;;10.70;;
8397;SDS011;4236;54.504;9.588;2023-05-14T07:59:00;11.67;;;10.87;;
8397;SDS011;4236;54.504;9.588;2023-05-14T08:01:28;10.93;;;10.03;;
8397;SDS011;4236;54.504;9.588;2023-05-14T08:03:56;11.10;;;10.10;;
8397;SDS011;4236;54.504;9.588;2023-05-14T08:06:24;10.53;;;9.77;;
8397;SDS011;4236;54.504;9.588;2023-05-14T08:08:52;9.33;;;8.70;;
8397;SDS011;4236;54.504;9.588;2023-05-14T08:11:20;9.80;;;9.00;;
8397;SDS011;4236;54.504;9.588;2023-05-14T08:13:52;9.60;;;9.00;;
8397;SDS011;4236;54.504;9.588;2023-05-14T08:16:20;10.07;;;9.37;;
8397;SDS011;4236;54.504;9.588;2023-05-14T08:18:48;10.10;;;9.40;;
8397;SDS011;4236;54.504;9.588;2023-05-14T08:21:17;10.30;;;9.40;;
8397;SDS011;4236;54.504;9.588;2023-05-14T08:23:56;10.63;;;9.93;;
8397;SDS011;4236;54.504;9.588;2023-05-14T08:26:39;11.13;;;10.23;;
8397;SDS011;4236;54.504;9.588;2023-05-14T08:29:09;9.60;;;8.70;;
8397;SDS011;4236;54.504;9.588;2023-05-14T08:31:40;11.13;;;9.07;;
8397;SDS011;4236;54.504;9.588;2023-05-14T08:34:11;9.47;;;8.73;;
8397;SDS011;4236;54.504;9.588;2023-05-14T08:36:40;9.53;;;8.83;;
8397;SDS011;4236;54.504;9.588;2023-05-14T08:39:08;7.67;;;7.17;;
8397;SDS011;4236;54.504;9.588;2023-05-14T08:41:36;6.83;;;6.43;;
8397;SDS011;4236;54.504;9.588;2023-05-14T08:44:05;7.57;;;7.10;;
8397;SDS011;4236;54.504;9.588;2023-05-14T08:46:36;6.90;;;6.40;;
8397;SDS011;4236;54.504;9.588;2023-05-14T08:49:07;6.57;;;6.17;;
8397;SDS011;4236;54.504;9.588;2023-05-14T08:51:43;5.93;;;5.57;;
8397;SDS011;4236;54.504;9.588;2023-05-14T08:54:13;6.87;;;6.47;;
8397;SDS011;4236;54.504;9.588;2023-05-14T08:56:43;7.23;;;6.03;;
8397;SDS011;4236;54.504;9.588;2023-05-14T08:59:12;6.10;;;5.80;;
8397;SDS011;4236;54.504;9.588;2023-05-14T09:01:45;6.97;;;6.27;;
8397;SDS011;4236;54.504;9.588;2023-05-14T09:04:14;7.17;;;6.67;;
8397;SDS011;4236;54.504;9.588;2023-05-14T09:06:46;13.37;;;9.43;;
8397;SDS011;4236;54.504;9.588;2023-05-14T09:09:17;5.77;;;5.23;;
8397;SDS011;4236;54.504;9.588;2023-05-14T09:11:47;6.10;;;5.60;;
8397;SDS011;4236;54.504;9.588;2023-05-14T09:14:16;6.20;;;5.53;;
8397;SDS011;4236;54.504;9.588;2023-05-14T09:16:45;7.20;;;5.60;;
8397;SDS011;4236;54.504;9.588;2023-05-14T09:19:15;6.50;;;6.10;;
8397;SDS011;4236;54.504;9.588;2023-05-14T09:21:44;5.90;;;5.33;;
8397;SDS011;4236;54.504;9.588;2023-05-14T09:24:17;5.30;;;5.10;;
8397;SDS011;4236;54.504;9.588;2023-05-14T09:26:48;5.77;;;5.33;;
8397;SDS011;4236;54.504;9.588;2023-05-14T09:29:17;5.80;;;5.40;;
8397;SDS011;4236;54.504;9.588;2023-05-14T09:31:46;5.87;;;5.37;;
8397;SDS011;4236;54.504;9.588;2023-05-14T09:34:22;5.63;;;5.23;;
8397;SDS011;4236;54.504;9.588;2023-05-14T09:36:53;6.80;;;5.50;;
8397;SDS011;4236;54.504;9.588;2023-05-14T09:39:22;6.27;;;5.47;;
8397;SDS011;4236;54.504;9.588;2023-05-14T09:41:50;7.27;;;6.67;;
8397;SDS011;4236;54.504;9.588;2023-05-14T09:44:18;9.00;;;5.73;;
8397;SDS011;4236;54.504;9.588;2023-05-14T09:46:49;5.70;;;5.30;;
8397;SDS011;4236;54.504;9.588;2023-05-14T09:49:17;6.10;;;5.53;;
8397;SDS011;4236;54.504;9.588;2023-05-14T09:51:45;5.83;;;5.43;;
8397;SDS011;4236;54.504;9.588;2023-05-14T09:54:15;5.03;;;4.63;;
8397;SDS011;4236;54.504;9.588;2023-05-14T09:56:44;5.33;;;4.83;;
8397;SDS011;4236;54.504;9.588;2023-05-14T09:59:11;5.87;;;5.57;;
8397;SDS011;4236;54.504;9.588;2023-05-14T10:01:40;6.50;;;5.30;;
8397;SDS011;4236;54.504;9.588;2023-05-14T10:04:12;5.60;;;5.20;;
8397;SDS011;4236;54.504;9.588;2023-05-14T10:06:40;6.23;;;5.63;;
8397;SDS011;4236;54.504;9.588;2023-05-14T10:09:14;7.43;;;5.57;;
8397;SDS011;4236;54.504;9.588;2023-05-14T10:11:47;5.37;;;4.83;;
8397;SDS011;4236;54.504;9.588;2023-05-14T10:14:24;5.43;;;4.93;;
8397;SDS011;4236;54.504;9.588;2023-05-14T10:16:55;5.10;;;4.60;;
8397;SDS011;4236;54.504;9.588;2023-05-14T10:19:28;5.40;;;5.10;;
8397;SDS011;4236;54.504;9.588;2023-05-14T10:22:02;5.53;;;5.03;;
8397;SDS011;4236;54.504;9.588;2023-05-14T10:24:33;5.33;;;4.60;;
8397;SDS011;4236;54.504;9.588;2023-05-14T10:27:04;6.00;;;5.57;;
8397;SDS011;4236;54.504;9.588;2023-05-14T10:29:32;6.30;;;5.90;;
8397;SDS011;4236;54.504;9.588;2023-05-14T10:32:02;6.40;;;5.13;;
8397;SDS011;4236;54.504;9.588;2023-05-14T10:34:33;6.00;;;5.50;;
8397;SDS011;4236;54.504;9.588;2023-05-14T10:37:04;5.37;;;4.77;;
8397;SDS011;4236;54.504;9.588;2023-05-14T10:39:40;5.03;;;4.70;;
8397;SDS011;4236;54.504;9.588;2023-05-14T10:42:09;5.33;;;4.93;;
8397;SDS011;4236;54.504;9.588;2023-05-14T10:44:40;9.40;;;6.73;;
8397;SDS011;4236;54.504;9.588;2023-05-14T10:47:13;7.27;;;5.40;;
8397;SDS011;4236;54.504;9.588;2023-05-14T10:49:44;6.03;;;5.63;;
8397;SDS011;4236;54.504;9.588;2023-05-14T10:52:15;6.03;;;4.93;;
8397;SDS011;4236;54.504;9.588;2023-05-14T10:54:51;5.43;;;5.00;;
8397;SDS011;4236;54.504;9.588;2023-05-14T10:57:21;5.80;;;5.40;;
8397;SDS011;4236;54.504;9.588;2023-05-14T10:59:51;5.40;;;4.90;;
8397;SDS011;4236;54.504;9.588;2023-05-14T11:02:21;6.37;;;5.93;;
8397;SDS011;4236;54.504;9.588;2023-05-14T11:04:55;5.00;;;4.63;;
8397;SDS011;4236;54.504;9.588;2023-05-14T11:07:28;6.50;;;5.60;;
8397;SDS011;4236;54.504;9.588;2023-05-14T11:09:58;5.37;;;5.07;;
8397;SDS011;4236;54.504;9.588;2023-05-14T11:12:29;6.33;;;5.73;;
8397;SDS011;4236;54.504;9.588;2023-05-14T11:14:57;5.33;;;4.93;;
8397;SDS011;4236;54.504;9.588;2023-05-14T11:17:27;5.40;;;5.10;;
8397;SDS011;4236;54.504;9.588;2023-05-14T11:19:58;6.17;;;5.67;;
8397;SDS011;4236;54.504;9.588;2023-05-14T11:22:26;6.10;;;5.70;;
8397;SDS011;4236;54.504;9.588;2023-05-14T11:24:54;5.83;;;5.43;;
8397;SDS011;4236;54.504;9.588;2023-05-14T11:27:22;8.57;;;5.23;;
8397;SDS011;4236;54.504;9.588;2023-05-14T11:29:49;6.07;;;5.57;;
8397;SDS011;4236;54.504;9.588;2023-05-14T11:32:17;5.40;;;4.97;;
8397;SDS011;4236;54.504;9.588;2023-05-14T11:34:46;5.90;;;5.40;;
8397;SDS011;4236;54.504;9.588;2023-05-14T11:37:15;5.50;;;5.20;;
8397;SDS011;4236;54.504;9.588;2023-05-14T11:39:46;5.83;;;5.40;;
8397;SDS011;4236;54.504;9.588;2023-05-14T11:42:15;5.83;;;5.40;;
8397;SDS011;4236;54.504;9.588;2023-05-14T11:44:45;6.17;;;5.57;;
8397;SDS011;4236;54.504;9.588;2023-05-14T11:47:14;5.33;;;4.97;;
8397;SDS011;4236;54.504;9.588;2023-05-14T11:49:43;5.70;;;5.20;;
8397;SDS011;4236;54.504;9.588;2023-05-14T11:52:11;6.13;;;5.63;;
8397;SDS011;4236;54.504;9.588;2023-05-14T11:54:41;6.20;;;5.67;;
8397;SDS011;4236;54.504;9.588;2023-05-14T11:57:10;10.47;;;6.60;;
8397;SDS011;4236;54.504;9.588;2023-05-14T11:59:39;7.67;;;6.90;;
8397;SDS011;4236;54.504;9.588;2023-05-14T12:02:07;6.57;;;6.17;;
8397;SDS011;4236;54.504;9.588;2023-05-14T12:04:36;8.10;;;6.07;;
8397;SDS011;4236;54.504;9.588;2023-05-14T12:07:08;6.93;;;6.43;;
8397;SDS011;4236;54.504;9.588;2023-05-14T12:09:39;5.93;;;5.53;;
8397;SDS011;4236;54.504;9.588;2023-05-14T12:12:14;7.20;;;6.70;;
8397;SDS011;4236;54.504;9.588;2023-05-14T12:14:44;7.10;;;6.60;;
8397;SDS011;4236;54.504;9.588;2023-05-14T12:17:13;7.23;;;6.70;;
8397;SDS011;4236;54.504;9.588;2023-05-14T12:19:42;7.93;;;7.23;;
8397;SDS011;4236;54.504;9.588;2023-05-14T12:22:10;7.80;;;7.30;;
8397;SDS011;4236;54.504;9.588;2023-05-14T12:24:39;8.27;;;7.30;;
8397;SDS011;4236;54.504;9.588;2023-05-14T12:27:09;8.60;;;8.00;;
8397;SDS011;4236;54.504;9.588;2023-05-14T12:29:37;8.03;;;7.47;;
8397;SDS011;4236;54.504;9.588;2023-05-14T12:32:08;6.80;;;6.40;;
8397;SDS011;4236;54.504;9.588;2023-05-14T12:34:36;6.37;;;5.97;;
8397;SDS011;4236;54.504;9.588;2023-05-14T12:37:04;7.80;;;7.10;;
8397;SDS011;4236;54.504;9.588;2023-05-14T12:39:32;7.80;;;7.10;;
8397;SDS011;4236;54.504;9.588;2023-05-14T12:42:02;8.17;;;7.57;;
8397;SDS011;4236;54.504;9.588;2023-05-14T12:44:29;7.67;;;7.07;;
8397;SDS011;4236;54.504;9.588;2023-05-14T12:46:57;7.40;;;6.90;;
8397;SDS011;4236;54.504;9.588;2023-05-14T12:49:25;6.80;;;6.30;;
8397;SDS011;4236;54.504;9.588;2023-05-14T12:51:53;6.73;;;6.23;;
8397;SDS011;4236;54.504;9.588;2023-05-14T12:54:41;6.90;;;6.40;;
8397;SDS011;4236;54.504;9.588;2023-05-14T12:57:10;6.30;;;5.90;;
8397;SDS011;4236;54.504;9.588;2023-05-14T12:59:38;6.70;;;6.10;;
8397;SDS011;4236;54.504;9.588;2023-05-14T13:02:06;6.47;;;6.07;;
8397;SDS011;4236;54.504;9.588;2023-05-14T13:04:34;6.33;;;5.73;;
8397;SDS011;4236;54.504;9.588;2023-05-14T13:07:02;6.80;;;6.27;;
8397;SDS011;4236;54.504;9.588;2023-05-14T13:09:30;7.23;;;6.50;;
8397;SDS011;4236;54.504;9.588;2023-05-14T13:11:58;7.80;;;7.00;;
8397;SDS011;4236;54.504;9.588;2023-05-14T13:14:27;8.17;;;6.43;;
8397;SDS011;4236;54.504;9.588;2023-05-14T13:16:54;7.17;;;6.50;;
8397;SDS011;4236;54.504;9.588;2023-05-14T13:19:23;7.07;;;6.47;;
8397;SDS011;4236;54.504;9.588;2023-05-14T13:21:50;6.07;;;5.70;;
8397;SDS011;4236;54.504;9.588;2023-05-14T13:24:18;7.10;;;6.50;;
8397;SDS011;4236;54.504;9.588;2023-05-14T13:26:46;7.20;;;6.60;;
8397;SDS011;4236;54.504;9.588;2023-05-14T13:29:13;6.60;;;6.10;;
8397;SDS011;4236;54.504;9.588;2023-05-14T13:31:43;7.10;;;6.33;;
8397;SDS011;4236;54.504;9.588;2023-05-14T13:34:11;6.07;;;5.57;;
8397;SDS011;4236;54.504;9.588;2023-05-14T13:36:40;5.60;;;5.40;;
8397;SDS011;4236;54.504;9.588;2023-05-14T13:39:08;7.23;;;6.20;;
8397;SDS011;4236;54.504;9.588;2023-05-14T13:41:39;7.00;;;6.33;;
8397;SDS011;4236;54.504;9.588;2023-05-14T13:44:06;6.40;;;6.00;;
8397;SDS011;4236;54.504;9.588;2023-05-14T13:46:34;6.27;;;5.80;;
8397;SDS011;4236;54.504;9.588;2023-05-14T13:49:03;6.83;;;6.43;;
8397;SDS011;4236;54.504;9.588;2023-05-14T13:51:31;6.20;;;5.70;;
8397;SDS011;4236;54.504;9.588;2023-05-14T13:53:59;6.73;;;6.33;;
8397;SDS011;4236;54.504;9.588;2023-05-14T13:56:26;7.00;;;5.90;;
8397;SDS011;4236;54.504;9.588;2023-05-14T13:58:54;6.43;;;6.03;;
8397;SDS011;4236;54.504;9.588;2023-05-14T14:01:22;6.33;;;5.63;;
8397;SDS011;4236;54.504;9.588;2023-05-14T14:03:50;6.23;;;5.97;;
8397;SDS011;4236;54.504;9.588;2023-05-14T14:06:19;5.73;;;5.33;;
8397;SDS011;4236;54.504;9.588;2023-05-14T14:08:47;7.07;;;6.47;;
8397;SDS011;4236;54.504;9.588;2023-05-14T14:11:15;7.70;;;6.70;;
8397;SDS011;4236;54.504;9.588;2023-05-14T14:13:43;6.53;;;5.80;;
8397;SDS011;4236;54.504;9.588;2023-05-14T14:16:12;6.20;;;5.50;;
8397;SDS011;4236;54.504;9.588;2023-05-14T14:18:39;5.53;;;5.23;;
8397;SDS011;4236;54.504;9.588;2023-05-14T14:21:08;5.60;;;5.40;;
8397;SDS011;4236;54.504;9.588;2023-05-14T14:23:38;6.07;;;5.50;;
8397;SDS011;4236;54.504;9.588;2023-05-14T14:26:06;6.47;;;5.83;;
8397;SDS011;4236;54.504;9.588;2023-05-14T14:28:34;6.70;;;6.10;;
8397;SDS011;4236;54.504;9.588;2023-05-14T14:31:02;6.07;;;5.57;;
8397;SDS011;4236;54.504;9.588;2023-05-14T14:33:29;6.33;;;5.57;;
8397;SDS011;4236;54.504;9.588;2023-05-14T14:35:57;6.80;;;5.97;;
8397;SDS011;4236;54.504;9.588;2023-05-14T14:38:25;5.90;;;5.40;;
8397;SDS011;4236;54.504;9.588;2023-05-14T14:40:54;5.60;;;5.13;;
8397;SDS011;4236;54.504;9.588;2023-05-14T14:43:21;5.20;;;4.73;;
8397;SDS011;4236;54.504;9.588;2023-05-14T14:45:50;6.40;;;5.73;;
8397;SDS011;4236;54.504;9.588;2023-05-14T14:48:21;6.63;;;6.23;;
8397;SDS011;4236;54.504;9.588;2023-05-14T14:50:50;6.87;;;6.33;;
8397;SDS011;4236;54.504;9.588;2023-05-14T14:53:18;6.23;;;5.57;;
8397;SDS011;4236;54.504;9.588;2023-05-14T14:55:46;6.10;;;5.70;;
8397;SDS011;4236;54.504;9.588;2023-05-14T14:58:16;7.83;;;5.77;;
8397;SDS011;4236;54.504;9.588;2023-05-14T15:00:45;6.43;;;5.83;;
8397;SDS011;4236;54.504;9.588;2023-05-14T15:03:13;8.23;;;6.10;;
8397;SDS011;4236;54.504;9.588;2023-05-14T15:05:41;8.37;;;7.03;;
8397;SDS011;4236;54.504;9.588;2023-05-14T15:08:09;9.83;;;6.10;;
8397;SDS011;4236;54.504;9.588;2023-05-14T15:10:37;6.40;;;5.90;;